Arxan, China
Current Conditions -  °F | °C
As of 6:00 PM on Monday 22 Dec 2014 (Local Time) from ZYHB Reporting Station
Smoke Smoke  
Wind Chill: -22°   Ceiling: Unl
Heat Index: -8°   Visibility: 2.5mi
Dew Point: -11°   Wind: 7mph
Humidity: 84%   Direction: 180°S
Pressure: 30.15"   Gusts: NA
Location:  47.17°N, 119.95°E
Report Text: ZYHB 221000Z 18003MPS 4000 FU NSC M22/M24 Q1021 NOSIG
Loading
Personal Weather Stations






























Interactive Weather Map New forecast layout! Learn more

10-Day Weather Forecast

Advertisements
Track Severe Weather on mobile